createdAt,value
2018-06-22T00:01:39.333Z,99772.65
2018-06-22T00:04:14.339Z,99770.09
2018-06-22T00:06:51.311Z,99777.33
2018-06-22T00:09:26.350Z,99773.36
2018-06-22T00:12:17.760Z,99766.41
2018-06-22T00:14:52.749Z,99777.48
2018-06-22T00:17:27.141Z,99780.98
2018-06-22T00:20:02.445Z,99772.20
2018-06-22T00:22:37.053Z,99771.77
2018-06-22T00:25:11.517Z,99772.36
2018-06-22T00:27:46.222Z,99760.61
2018-06-22T00:30:20.929Z,99760.78
2018-06-22T00:32:55.536Z,99762.86
2018-06-22T00:35:30.200Z,99756.73
2018-06-22T00:38:04.753Z,99755.06
2018-06-22T00:40:39.195Z,99758.56
2018-06-22T00:43:13.749Z,99750.66
2018-06-22T00:45:48.182Z,99745.27
2018-06-22T00:48:22.804Z,99748.36
2018-06-22T00:50:57.256Z,99753.70
2018-06-22T00:53:43.349Z,99758.18
2018-06-22T00:56:17.786Z,99749.25
2018-06-22T00:58:52.385Z,99741.09
2018-06-22T01:01:26.990Z,99741.09
2018-06-22T01:04:01.496Z,99738.69
2018-06-22T01:06:36.059Z,99744.55
2018-06-22T01:09:12.076Z,99736.79
2018-06-22T01:11:46.765Z,99732.26
2018-06-22T01:14:21.422Z,99730.03
2018-06-22T01:16:56.001Z,99740.15
2018-06-22T01:19:30.572Z,99741.50
2018-06-22T01:22:05.191Z,99733.45
2018-06-22T01:24:39.752Z,99733.56
2018-06-22T01:27:14.058Z,99737.72
2018-06-22T01:29:48.744Z,99730.96
2018-06-22T01:32:23.488Z,99730.31
2018-06-22T01:34:58.032Z,99737.62
2018-06-22T01:37:32.609Z,99743.08
2018-06-22T01:40:07.128Z,99742.08
2018-06-22T01:42:41.945Z,99734.98
2018-06-22T01:45:16.589Z,99743.98
2018-06-22T01:47:51.124Z,99740.72
2018-06-22T01:50:25.757Z,99735.84
2018-06-22T01:53:00.313Z,99740.72
2018-06-22T01:55:34.728Z,99744.51
2018-06-22T01:58:09.462Z,99740.48
2018-06-22T02:00:43.945Z,99744.31
2018-06-22T02:03:18.377Z,99745.89
2018-06-22T02:05:52.924Z,99738.72
2018-06-22T02:08:27.574Z,99747.38
2018-06-22T02:11:02.517Z,99746.52
2018-06-22T02:13:37.348Z,99739.66
2018-06-22T02:16:11.764Z,99725.48
2018-06-22T02:18:46.042Z,99735.03
2018-06-22T02:21:20.658Z,99742.45
2018-06-22T02:23:55.121Z,99732.00
2018-06-22T02:26:29.783Z,99730.19
2018-06-22T02:29:04.170Z,99724.52
2018-06-22T02:31:38.747Z,99728.11
2018-06-22T02:34:12.983Z,99719.73
2018-06-22T02:36:47.232Z,99717.76
2018-06-22T02:39:21.639Z,99718.73
2018-06-22T02:41:56.632Z,99722.33
2018-06-22T02:44:31.029Z,99718.61
2018-06-22T02:47:05.629Z,99715.76
2018-06-22T02:49:40.081Z,99714.80
2018-06-22T02:52:14.464Z,99707.55
2018-06-22T02:54:48.875Z,99715.31
2018-06-22T02:57:23.199Z,99708.22
2018-06-22T02:59:57.627Z,99706.45
2018-06-22T03:02:31.952Z,99713.88
2018-06-22T03:05:06.452Z,99704.44
2018-06-22T03:07:40.860Z,99708.69
2018-06-22T03:10:15.156Z,99717.73
2018-06-22T03:12:49.472Z,99712.59
2018-06-22T03:18:41.607Z,99715.77
2018-06-22T03:21:15.935Z,99719.53
2018-06-22T03:23:50.280Z,99717.60
2018-06-22T03:26:24.732Z,99722.22
2018-06-22T03:28:59.058Z,99718.87
2018-06-22T03:31:33.346Z,99722.53
2018-06-22T03:34:07.703Z,99726.23
2018-06-22T03:36:42.119Z,99722.69
2018-06-22T03:39:16.530Z,99714.41
2018-06-22T03:41:51.200Z,99710.89
2018-06-22T03:44:25.651Z,99707.12
2018-06-22T03:47:00.462Z,99705.56
2018-06-22T03:49:34.887Z,99709.55
2018-06-22T03:52:09.151Z,99709.55
2018-06-22T03:54:43.463Z,99703.02
2018-06-22T03:57:17.887Z,99704.51
2018-06-22T03:59:52.316Z,99691.11
2018-06-22T04:02:26.763Z,99696.55
2018-06-22T04:05:01.301Z,99700.23
2018-06-22T04:07:35.612Z,99703.65
2018-06-22T04:10:09.943Z,99698.11
2018-06-22T04:12:44.321Z,99696.48
2018-06-22T04:15:18.821Z,99690.35
2018-06-22T04:17:54.479Z,99683.69
2018-06-22T04:20:28.732Z,99689.86
2018-06-22T04:23:03.100Z,99675.91
2018-06-22T04:25:37.339Z,99683.10
2018-06-22T04:28:11.663Z,99673.95
2018-06-22T04:30:46.368Z,99676.68
2018-06-22T04:33:20.876Z,99678.69
2018-06-22T04:35:55.444Z,99680.95
2018-06-22T04:38:30.068Z,99686.63
2018-06-22T04:41:04.893Z,99682.39
2018-06-22T04:43:39.404Z,99686.59
2018-06-22T04:46:14.121Z,99689.06
2018-06-22T04:48:48.784Z,99679.66
2018-06-22T04:51:23.284Z,99680.67
2018-06-22T04:53:57.636Z,99678.97
2018-06-22T04:56:32.383Z,99685.17
2018-06-22T04:59:06.978Z,99686.38
2018-06-22T05:01:41.641Z,99688.84
2018-06-22T05:04:16.139Z,99680.94
2018-06-22T05:06:50.661Z,99687.23
2018-06-22T05:09:25.123Z,99685.95
2018-06-22T05:11:59.716Z,99678.69
2018-06-22T05:14:34.174Z,99693.27
2018-06-22T05:17:08.669Z,99696.95
2018-06-22T05:19:43.172Z,99691.27
2018-06-22T05:22:17.820Z,99717.80
2018-06-22T05:24:52.234Z,99709.64
2018-06-22T05:27:26.616Z,99717.36
2018-06-22T05:30:01.018Z,99726.72
2018-06-22T05:32:36.013Z,99729.14
2018-06-22T05:35:10.461Z,99719.08
2018-06-22T05:37:45.026Z,99716.02
2018-06-22T05:40:19.524Z,99717.42
2018-06-22T05:42:53.984Z,99710.06
2018-06-22T05:45:28.400Z,99720.56
2018-06-22T05:48:02.816Z,99713.30
2018-06-22T05:50:37.259Z,99708.53
2018-06-22T05:53:11.880Z,99711.42
2018-06-22T05:55:46.512Z,99721.77
2018-06-22T05:58:21.026Z,99717.81
2018-06-22T06:00:55.432Z,99728.93
2018-06-22T06:03:29.895Z,99739.09
2018-06-22T06:06:04.224Z,99739.90
2018-06-22T06:08:38.645Z,99735.78
2018-06-22T06:11:13.031Z,99728.50
2018-06-22T06:13:47.570Z,99734.23
2018-06-22T06:16:22.610Z,99736.58
2018-06-22T06:18:57.016Z,99721.21
2018-06-22T06:21:31.529Z,99729.13
2018-06-22T06:24:06.376Z,99730.81
2018-06-22T06:26:40.922Z,99730.42
2018-06-22T06:29:15.461Z,99729.98
2018-06-22T06:31:49.896Z,99725.53
2018-06-22T06:34:24.644Z,99735.52
2018-06-22T06:36:59.081Z,99734.77
2018-06-22T06:39:33.645Z,99731.21
2018-06-22T06:42:11.372Z,99736.91
2018-06-22T06:44:46.518Z,99737.56
2018-06-22T06:47:21.163Z,99736.30
2018-06-22T06:49:55.528Z,99746.91
2018-06-22T06:52:30.188Z,99734.84
2018-06-22T06:55:05.015Z,99745.72
2018-06-22T06:57:39.589Z,99743.37
2018-06-22T07:00:14.009Z,99745.62
2018-06-22T07:02:48.441Z,99741.55
2018-06-22T07:05:22.798Z,99750.95
2018-06-22T07:07:57.732Z,99743.64
2018-06-22T07:10:32.400Z,99746.97
2018-06-22T07:13:06.857Z,99746.92
2018-06-22T07:15:41.958Z,99752.06
2018-06-22T07:18:16.608Z,99755.91
2018-06-22T07:20:51.077Z,99742.50
2018-06-22T07:23:25.617Z,99760.78
2018-06-22T07:26:00.001Z,99755.03
2018-06-22T07:28:34.375Z,99766.50
2018-06-22T07:31:09.128Z,99768.46
2018-06-22T07:33:43.752Z,99771.39
2018-06-22T07:36:18.455Z,99777.86
2018-06-22T07:38:52.957Z,99772.55
2018-06-22T07:41:27.473Z,99775.62
2018-06-22T07:44:02.056Z,99776.95
2018-06-22T07:46:36.444Z,99778.05
2018-06-22T07:49:10.940Z,99778.91
2018-06-22T07:51:45.474Z,99790.20
2018-06-22T07:54:20.245Z,99792.22
2018-06-22T07:56:54.837Z,99795.42
2018-06-22T07:59:29.389Z,99794.91
2018-06-22T08:02:03.863Z,99803.52
2018-06-22T08:04:38.225Z,99808.19
2018-06-22T08:10:11.580Z,99812.50
2018-06-22T08:12:46.044Z,99821.10
2018-06-22T08:15:20.608Z,99826.58
2018-06-22T08:17:55.001Z,99823.86
2018-06-22T08:20:29.744Z,99823.83
2018-06-22T08:23:04.343Z,99827.42
2018-06-22T08:25:38.861Z,99825.00
2018-06-22T08:28:13.420Z,99823.50
2018-06-22T08:30:47.866Z,99831.17
2018-06-22T08:33:22.361Z,99833.09
2018-06-22T08:35:56.853Z,99835.09
2018-06-22T08:38:31.319Z,99834.63
2018-06-22T08:41:05.756Z,99846.98
2018-06-22T08:43:40.340Z,99849.89
2018-06-22T08:46:14.984Z,99856.47
2018-06-22T08:48:49.566Z,99847.49
2018-06-22T08:51:24.200Z,99849.11
2018-06-22T08:53:58.664Z,99852.64
2018-06-22T08:56:33.152Z,99851.18
2018-06-22T08:59:07.615Z,99855.83
2018-06-22T09:01:42.090Z,99852.16
2018-06-22T09:04:16.704Z,99854.19
2018-06-22T09:06:51.248Z,99848.00
2018-06-22T09:09:26.420Z,99852.12
2018-06-22T09:12:01.447Z,99855.56
2018-06-22T09:14:37.111Z,99850.36
2018-06-22T09:17:11.615Z,99855.70
2018-06-22T09:19:46.300Z,99859.86
2018-06-22T09:22:20.730Z,99863.70
2018-06-22T09:24:55.389Z,99867.22
2018-06-22T09:27:29.940Z,99868.11
2018-06-22T09:30:04.877Z,99872.08
2018-06-22T09:32:40.395Z,99872.59
2018-06-22T09:35:14.901Z,99863.75
2018-06-22T09:37:49.404Z,99867.31
2018-06-22T09:40:23.871Z,99875.23
2018-06-22T09:42:58.401Z,99868.78
2018-06-22T09:45:32.908Z,99868.38
2018-06-22T09:48:07.495Z,99861.67
2018-06-22T09:50:41.924Z,99869.59
2018-06-22T09:53:16.338Z,99860.59
2018-06-22T09:55:51.533Z,99866.12
2018-06-22T09:58:25.998Z,99874.86
2018-06-22T10:01:01.384Z,99864.25
2018-06-22T10:03:35.956Z,99871.52
2018-06-22T10:06:10.636Z,99874.27
2018-06-22T10:08:45.825Z,99874.69
2018-06-22T10:11:20.307Z,99875.03
2018-06-22T10:13:54.920Z,99874.98
2018-06-22T10:16:29.357Z,99877.41
2018-06-22T10:19:04.020Z,99873.08
2018-06-22T10:21:38.618Z,99871.64
2018-06-22T10:24:13.144Z,99867.47
2018-06-22T10:26:47.952Z,99874.48
2018-06-22T10:29:22.433Z,99875.39
2018-06-22T10:31:56.935Z,99866.02
2018-06-22T10:34:31.603Z,99870.48
2018-06-22T10:37:06.280Z,99870.16
2018-06-22T10:39:40.749Z,99872.15
2018-06-22T10:42:15.492Z,99874.66
2018-06-22T10:44:50.203Z,99876.61
2018-06-22T10:47:24.769Z,99876.11
2018-06-22T10:49:59.279Z,99881.61
2018-06-22T10:52:33.824Z,99887.30
2018-06-22T10:55:08.328Z,99883.94
2018-06-22T10:57:42.873Z,99885.02
2018-06-22T11:00:17.538Z,99881.74
2018-06-22T11:02:52.127Z,99885.73
2018-06-22T11:05:26.713Z,99883.14
2018-06-22T11:08:01.122Z,99873.21
2018-06-22T11:10:35.641Z,99889.61
2018-06-22T11:13:10.249Z,99884.95
2018-06-22T11:15:44.805Z,99894.99
2018-06-22T11:18:19.234Z,99894.03
2018-06-22T11:20:53.801Z,99893.63
2018-06-22T11:23:28.445Z,99887.81
2018-06-22T11:26:02.918Z,99891.08
2018-06-22T11:28:37.478Z,99888.67
2018-06-22T11:31:12.718Z,99888.02
2018-06-22T11:33:47.369Z,99892.30
2018-06-22T11:36:22.022Z,99895.33
2018-06-22T11:38:56.839Z,99885.88
2018-06-22T11:41:31.469Z,99892.44
2018-06-22T11:44:06.124Z,99903.14
2018-06-22T11:49:40.356Z,99911.27
2018-06-22T11:52:14.879Z,99906.53
2018-06-22T11:54:49.558Z,99906.50
2018-06-22T11:57:24.181Z,99899.22
2018-06-22T11:59:58.745Z,99903.02
2018-06-22T12:02:33.421Z,99896.88
2018-06-22T12:05:07.984Z,99893.53
2018-06-22T12:07:42.633Z,99896.64
2018-06-22T12:10:17.445Z,99887.13
2018-06-22T12:12:52.425Z,99887.41
2018-06-22T12:15:31.195Z,99886.41
2018-06-22T12:18:05.965Z,99882.80
2018-06-22T12:20:40.648Z,99887.43
2018-06-22T12:23:15.347Z,99886.37
2018-06-22T12:25:49.899Z,99889.45
2018-06-22T12:28:24.494Z,99882.58
2018-06-22T12:30:59.123Z,99889.88
2018-06-22T12:33:33.645Z,99888.63
2018-06-22T12:36:08.332Z,99895.55
2018-06-22T12:38:42.898Z,99905.58
2018-06-22T12:41:17.507Z,99909.06
2018-06-22T12:43:54.065Z,99906.69
2018-06-22T12:46:28.517Z,99908.75
2018-06-22T12:49:02.852Z,99907.92
2018-06-22T12:51:37.256Z,99898.34
2018-06-22T12:54:11.778Z,99899.42
2018-06-22T12:56:46.489Z,99896.08
2018-06-22T12:59:21.089Z,99890.14
2018-06-22T13:01:55.918Z,99890.15
2018-06-22T13:04:30.969Z,99892.30
2018-06-22T13:07:05.802Z,99888.80
2018-06-22T13:09:40.509Z,99882.66
2018-06-22T13:12:14.910Z,99882.74
2018-06-22T13:14:49.407Z,99890.42
2018-06-22T13:17:24.117Z,99887.58
2018-06-22T13:19:58.725Z,99884.08
2018-06-22T13:22:33.725Z,99882.45
2018-06-22T13:25:08.156Z,99878.94
2018-06-22T13:27:42.569Z,99883.22
2018-06-22T13:30:17.225Z,99875.86
2018-06-22T13:32:51.678Z,99881.23
2018-06-22T13:35:26.165Z,99880.67
2018-06-22T13:38:00.602Z,99887.19
2018-06-22T13:40:35.100Z,99888.84
2018-06-22T13:43:09.488Z,99883.53
2018-06-22T13:45:44.033Z,99887.77
2018-06-22T13:48:18.748Z,99897.35
2018-06-22T13:50:53.285Z,99895.88
2018-06-22T13:53:27.841Z,99892.98
2018-06-22T13:56:02.469Z,99888.48
2018-06-22T13:58:37.921Z,99888.30
2018-06-22T14:01:12.441Z,99886.20
2018-06-22T14:03:52.238Z,99891.12
2018-06-22T14:06:32.218Z,99891.22
2018-06-22T14:09:09.296Z,99890.08
2018-06-22T14:11:44.289Z,99889.67
2018-06-22T14:14:18.776Z,99887.64
2018-06-22T14:16:53.297Z,99885.81
2018-06-22T14:19:28.013Z,99887.52
2018-06-22T14:22:03.308Z,99888.14
2018-06-22T14:24:37.850Z,99898.22
2018-06-22T14:27:12.401Z,99896.81
2018-06-22T14:29:46.966Z,99902.63
2018-06-22T14:32:21.464Z,99899.07
2018-06-22T14:34:56.097Z,99897.64
2018-06-22T14:37:30.760Z,99901.14
2018-06-22T14:40:05.311Z,99900.49
2018-06-22T14:42:39.844Z,99896.61
2018-06-22T14:45:14.372Z,99887.37
2018-06-22T14:47:50.601Z,99892.02
2018-06-22T14:50:25.091Z,99891.44
2018-06-22T14:52:59.744Z,99886.47
2018-06-22T14:55:39.889Z,99888.83
2018-06-22T14:58:19.636Z,99887.34
2018-06-22T15:00:59.495Z,99897.69
2018-06-22T15:03:39.571Z,99896.30
2018-06-22T15:06:19.333Z,99897.98
2018-06-22T15:08:53.889Z,99889.19
2018-06-22T15:11:28.485Z,99886.93
2018-06-22T15:14:03.198Z,99895.16
2018-06-22T15:16:38.264Z,99894.20
2018-06-22T15:19:12.882Z,99886.45
2018-06-22T15:21:47.530Z,99893.45
2018-06-22T15:24:22.090Z,99895.63
2018-06-22T15:26:56.629Z,99901.37
2018-06-22T15:29:31.149Z,99904.23
2018-06-22T15:32:05.683Z,99892.80
2018-06-22T15:34:45.441Z,99900.91
2018-06-22T15:37:25.237Z,99897.84
2018-06-22T15:40:05.197Z,99897.38
2018-06-22T15:42:46.042Z,99898.31
2018-06-22T15:45:25.845Z,99910.55
2018-06-22T15:48:05.781Z,99914.45
2018-06-22T15:50:45.614Z,99914.19
2018-06-22T15:53:25.386Z,99912.91
2018-06-22T15:56:05.157Z,99915.05
2018-06-22T15:58:39.782Z,99911.89
2018-06-22T16:01:14.272Z,99920.44
2018-06-22T16:03:54.098Z,99909.55
2018-06-22T16:06:29.200Z,99912.28
2018-06-22T16:09:04.860Z,99911.20
2018-06-22T16:11:39.293Z,99913.20
2018-06-22T16:14:19.140Z,99913.71
2018-06-22T16:16:59.037Z,99921.22
2018-06-22T16:19:38.909Z,99922.20
2018-06-22T16:22:18.628Z,99922.56
2018-06-22T16:24:58.396Z,99924.55
2018-06-22T16:27:37.345Z,99928.66
2018-06-22T16:30:12.020Z,99927.27
2018-06-22T16:32:46.629Z,99930.56
2018-06-22T16:35:21.683Z,99924.57
2018-06-22T16:37:56.483Z,99933.77
2018-06-22T16:40:30.961Z,99930.41
2018-06-22T16:43:05.577Z,99940.91
2018-06-22T16:45:40.197Z,99944.25
2018-06-22T16:48:14.619Z,99942.45
2018-06-22T16:50:48.948Z,99941.45
2018-06-22T16:53:26.038Z,99932.69
2018-06-22T16:56:01.893Z,99939.13
2018-06-22T16:58:39.442Z,99937.00
2018-06-22T17:01:14.013Z,99936.30
2018-06-22T17:03:48.677Z,99936.05
2018-06-22T17:06:23.417Z,99943.25
2018-06-22T17:09:03.427Z,99964.61
2018-06-22T17:11:43.344Z,99942.67
2018-06-22T17:14:23.357Z,99945.95
2018-06-22T17:17:03.343Z,99950.86
2018-06-22T17:19:38.155Z,99948.39
2018-06-22T17:22:12.757Z,99950.50
2018-06-22T17:24:47.322Z,99950.63
2018-06-22T17:27:21.910Z,99952.96
2018-06-22T17:29:56.518Z,99948.97
2018-06-22T17:32:31.098Z,99948.06
2018-06-22T17:35:05.658Z,99947.75
2018-06-22T17:37:40.277Z,99952.79
2018-06-22T17:40:14.925Z,99954.75
2018-06-22T17:42:49.329Z,99957.29
2018-06-22T17:45:23.769Z,99954.97
2018-06-22T17:47:58.330Z,99957.84
2018-06-22T17:50:32.716Z,99961.05
2018-06-22T17:53:07.302Z,99958.86
2018-06-22T17:55:42.033Z,99960.66
2018-06-22T17:58:16.605Z,99955.02
2018-06-22T18:00:56.625Z,99963.02
2018-06-22T18:03:36.363Z,99967.38
2018-06-22T18:06:16.065Z,99969.55
2018-06-22T18:08:50.608Z,99973.83
2018-06-22T18:11:30.321Z,99967.89
2018-06-22T18:14:04.793Z,99964.88
2018-06-22T18:16:39.341Z,99964.88
2018-06-22T18:19:13.928Z,99976.95
2018-06-22T18:21:48.449Z,99979.80
2018-06-22T18:24:28.556Z,99975.73
2018-06-22T18:27:03.436Z,99983.02
2018-06-22T18:29:37.926Z,99982.70
2018-06-22T18:32:12.528Z,99985.58
2018-06-22T18:34:47.104Z,99983.23
2018-06-22T18:37:21.805Z,99978.57
2018-06-22T18:40:02.265Z,99989.23
2018-06-22T18:45:35.989Z,99994.45
2018-06-22T18:48:10.549Z,99992.80
2018-06-22T18:50:45.356Z,99995.77
2018-06-22T18:53:25.261Z,100002.44
2018-06-22T18:56:05.377Z,99999.92
2018-06-22T18:58:45.264Z,100000.48
2018-06-22T19:02:28.863Z,100014.23
2018-06-22T19:05:03.722Z,100016.78
2018-06-22T19:07:38.283Z,100016.77
2018-06-22T19:10:12.953Z,100017.27
2018-06-22T19:12:49.041Z,100012.72
2018-06-22T19:15:29.169Z,100012.72
2018-06-22T19:18:06.142Z,100018.91
2018-06-22T19:20:41.398Z,100016.32
2018-06-22T19:23:25.635Z,100021.92
2018-06-22T19:26:00.170Z,100021.52
2018-06-22T19:28:34.500Z,100018.78
2018-06-22T19:31:08.948Z,100025.15
2018-06-22T19:33:43.527Z,100024.02
2018-06-22T19:36:18.161Z,100029.92
2018-06-22T19:38:52.616Z,100028.05
2018-06-22T19:41:27.000Z,100031.50
2018-06-22T19:44:06.872Z,100034.48
2018-06-22T19:46:46.793Z,100036.05
2018-06-22T19:49:26.737Z,100041.50
2018-06-22T19:53:06.408Z,100038.30
2018-06-22T19:55:40.941Z,100046.09
2018-06-22T19:58:15.386Z,100050.53
2018-06-22T20:00:50.052Z,100051.67
2018-06-22T20:03:24.629Z,100051.89
2018-06-22T20:05:59.241Z,100056.41
2018-06-22T20:08:33.573Z,100054.06
2018-06-22T20:11:08.148Z,100057.48
2018-06-22T20:13:43.808Z,100050.44
2018-06-22T20:16:18.299Z,100057.77
2018-06-22T20:18:52.589Z,100060.16
2018-06-22T20:21:27.016Z,100054.83
2018-06-22T20:24:01.401Z,100058.48
2018-06-22T20:26:35.915Z,100053.74
2018-06-22T20:29:10.372Z,100059.30
2018-06-22T20:31:44.809Z,100064.78
2018-06-22T20:34:24.783Z,100067.77
2018-06-22T20:38:06.296Z,100063.95
2018-06-22T20:40:46.101Z,100073.77
2018-06-22T20:43:26.022Z,100076.94
2018-06-22T20:46:00.661Z,100074.37
2018-06-22T20:48:40.526Z,100080.02
2018-06-22T20:51:15.210Z,100080.17
2018-06-22T20:53:49.821Z,100079.83
2018-06-22T20:56:24.395Z,100077.97
2018-06-22T20:58:58.836Z,100081.80
2018-06-22T21:01:33.370Z,100081.83
2018-06-22T21:04:07.898Z,100081.44
2018-06-22T21:06:42.426Z,100079.20
2018-06-22T21:09:16.936Z,100080.97
2018-06-22T21:11:51.518Z,100084.41
2018-06-22T21:14:26.034Z,100087.40
2018-06-22T21:17:00.518Z,100089.63
2018-06-22T21:19:35.160Z,100091.39
2018-06-22T21:22:11.565Z,100088.59
2018-06-22T21:24:46.237Z,100095.08
2018-06-22T21:27:26.152Z,100094.70
2018-06-22T21:30:06.169Z,100089.19
2018-06-22T21:32:45.990Z,100091.22
2018-06-22T21:35:25.892Z,100088.61
2018-06-22T21:38:05.734Z,100095.39
2018-06-22T21:40:40.235Z,100091.56
2018-06-22T21:43:14.860Z,100097.56
2018-06-22T21:45:49.456Z,100098.34
2018-06-22T21:48:24.009Z,100096.48
2018-06-22T21:50:58.605Z,100093.21
2018-06-22T21:53:33.049Z,100099.73
2018-06-22T21:56:07.664Z,100102.45
2018-06-22T21:58:41.989Z,100095.86
2018-06-22T22:01:16.501Z,100101.05
2018-06-22T22:03:51.034Z,100109.69
2018-06-22T22:06:25.599Z,100103.91
2018-06-22T22:09:00.145Z,100106.36
2018-06-22T22:11:39.845Z,100108.41
2018-06-22T22:14:14.516Z,100102.77
2018-06-22T22:16:49.237Z,100110.10
2018-06-22T22:19:23.724Z,100110.67
2018-06-22T22:21:58.136Z,100110.15
2018-06-22T22:24:32.568Z,100111.52
2018-06-22T22:27:06.905Z,100111.83
2018-06-22T22:29:41.880Z,100119.53
2018-06-22T22:32:16.422Z,100113.79
2018-06-22T22:34:50.873Z,100115.55
2018-06-22T22:37:25.449Z,100116.39
2018-06-22T22:40:00.708Z,100105.00
2018-06-22T22:42:35.272Z,100110.68
2018-06-22T22:45:09.692Z,100114.82
2018-06-22T22:47:44.459Z,100106.66
2018-06-22T22:50:19.118Z,100111.86
2018-06-22T22:52:53.764Z,100107.78
2018-06-22T22:55:28.193Z,100111.59
2018-06-22T22:58:02.652Z,100103.88
2018-06-22T23:00:37.744Z,100099.02
2018-06-22T23:03:12.322Z,100095.73
2018-06-22T23:05:47.491Z,100093.88
2018-06-22T23:08:22.115Z,100083.77
2018-06-22T23:10:56.732Z,100087.38
2018-06-22T23:13:31.288Z,100078.93
2018-06-22T23:16:15.876Z,100080.48
2018-06-22T23:18:50.780Z,100091.41
2018-06-22T23:21:26.740Z,100091.02
2018-06-22T23:24:02.034Z,100084.20
2018-06-22T23:26:36.777Z,100095.66
2018-06-22T23:29:11.216Z,100093.28
2018-06-22T23:31:47.636Z,100080.38
2018-06-22T23:34:28.888Z,100084.73
2018-06-22T23:37:03.417Z,100083.10
2018-06-22T23:39:37.960Z,100089.36
2018-06-22T23:42:17.989Z,100088.45
2018-06-22T23:47:54.328Z,100086.59
2018-06-22T23:50:29.317Z,100077.56
2018-06-22T23:53:23.154Z,100076.97
2018-06-22T23:55:59.927Z,100072.32
